createdAt,value
2022-12-15T00:01:48.283Z,25.91
2022-12-15T00:04:16.853Z,25.74
2022-12-15T00:06:45.031Z,25.60
2022-12-15T00:09:14.616Z,25.63
2022-12-15T00:11:43.637Z,25.68
2022-12-15T00:14:11.812Z,25.66
2022-12-15T00:16:39.985Z,25.65
2022-12-15T00:19:08.269Z,25.68
2022-12-15T00:21:36.243Z,25.72
2022-12-15T00:24:04.440Z,25.73
2022-12-15T00:26:32.504Z,25.72
2022-12-15T00:29:00.577Z,25.76
2022-12-15T00:31:28.817Z,25.75
2022-12-15T00:33:57.861Z,25.71
2022-12-15T00:36:25.909Z,25.65
2022-12-15T00:38:56.157Z,25.65
2022-12-15T00:41:27.679Z,25.62
2022-12-15T00:43:55.709Z,25.49
2022-12-15T00:46:23.862Z,25.39
2022-12-15T00:48:52.910Z,25.26
2022-12-15T00:51:21.221Z,25.22
2022-12-15T00:53:49.607Z,25.19
2022-12-15T00:56:18.128Z,25.22
2022-12-15T00:58:46.381Z,25.13
2022-12-15T01:01:14.249Z,25.09
2022-12-15T01:03:42.523Z,25.17
2022-12-15T01:06:13.238Z,25.27
2022-12-15T01:08:41.329Z,25.30
2022-12-15T01:11:09.422Z,25.42
2022-12-15T01:13:37.632Z,25.42
2022-12-15T01:16:13.209Z,25.50
2022-12-15T01:18:41.257Z,25.55
2022-12-15T01:21:10.973Z,25.55
2022-12-15T01:23:41.084Z,25.54
2022-12-15T01:26:09.180Z,25.52
2022-12-15T01:28:37.357Z,25.49
2022-12-15T01:31:12.738Z,25.41
2022-12-15T01:33:41.065Z,25.46
2022-12-15T01:36:09.869Z,25.40
2022-12-15T01:38:38.030Z,25.41
2022-12-15T01:41:10.415Z,25.33
2022-12-15T01:43:40.570Z,25.32
2022-12-15T01:46:17.137Z,25.18
2022-12-15T01:49:14.485Z,25.14
2022-12-15T01:51:50.733Z,25.14
2022-12-15T01:54:29.279Z,25.07
2022-12-15T01:57:03.342Z,24.90
2022-12-15T01:59:36.186Z,24.93
2022-12-15T02:02:04.846Z,24.86
2022-12-15T02:04:34.211Z,24.96
2022-12-15T02:07:02.239Z,24.91
2022-12-15T02:09:30.836Z,24.88
2022-12-15T02:12:26.236Z,24.97
2022-12-15T02:15:08.898Z,24.92
2022-12-15T02:17:55.038Z,24.93
2022-12-15T02:20:40.352Z,24.84
2022-12-15T02:23:17.382Z,24.76
2022-12-15T02:25:54.881Z,24.69
2022-12-15T02:28:29.120Z,24.73
2022-12-15T02:31:15.505Z,24.77
2022-12-15T02:34:09.116Z,24.72
2022-12-15T02:36:41.380Z,24.72
2022-12-15T02:39:12.333Z,24.78
2022-12-15T02:41:44.277Z,24.83
2022-12-15T02:44:18.466Z,24.81
2022-12-15T02:47:08.588Z,24.87
2022-12-15T02:49:55.429Z,24.88
2022-12-15T02:52:55.945Z,24.90
2022-12-15T02:55:46.316Z,24.93
2022-12-15T02:58:23.608Z,24.91
2022-12-15T03:01:00.593Z,24.74
2022-12-15T03:03:31.885Z,24.49
2022-12-15T03:06:00.931Z,24.47
2022-12-15T03:08:29.129Z,24.39
2022-12-15T03:10:58.569Z,24.41
2022-12-15T03:13:26.804Z,24.36
2022-12-15T03:15:55.970Z,24.39
2022-12-15T03:18:24.470Z,24.49
2022-12-15T03:20:52.694Z,24.60
2022-12-15T03:23:20.907Z,24.64
2022-12-15T03:25:49.635Z,24.59
2022-12-15T03:28:18.509Z,24.62
2022-12-15T03:30:50.386Z,24.67
2022-12-15T03:33:19.107Z,24.63
2022-12-15T03:35:47.236Z,24.58
2022-12-15T03:38:15.361Z,24.54
2022-12-15T03:40:44.181Z,24.44
2022-12-15T03:43:12.555Z,24.43
2022-12-15T03:45:40.698Z,24.30
2022-12-15T03:48:09.122Z,24.42
2022-12-15T03:50:37.194Z,24.35
2022-12-15T03:53:05.801Z,24.21
2022-12-15T03:55:34.175Z,24.22
2022-12-15T03:58:02.260Z,24.17
2022-12-15T04:00:30.439Z,24.11
2022-12-15T04:02:59.494Z,24.06
2022-12-15T04:05:33.050Z,24.12
2022-12-15T04:08:02.432Z,24.07
2022-12-15T04:10:34.765Z,24.12
2022-12-15T04:13:06.093Z,24.20
2022-12-15T04:15:35.459Z,24.06
2022-12-15T04:18:06.105Z,24.11
2022-12-15T04:20:34.741Z,24.11
2022-12-15T04:23:02.858Z,24.04
2022-12-15T04:25:31.161Z,23.88
2022-12-15T04:28:01.742Z,23.85
2022-12-15T04:30:31.895Z,23.84
2022-12-15T04:33:00.613Z,23.75
2022-12-15T04:35:29.186Z,23.76
2022-12-15T04:37:57.750Z,23.61
2022-12-15T04:40:25.726Z,23.48
2022-12-15T04:42:53.827Z,23.31
2022-12-15T04:45:24.801Z,23.27
2022-12-15T04:47:52.798Z,23.11
2022-12-15T04:50:20.836Z,23.02
2022-12-15T04:52:48.921Z,22.98
2022-12-15T04:55:17.169Z,23.00
2022-12-15T04:57:45.187Z,23.01
2022-12-15T05:00:13.848Z,23.04
2022-12-15T05:02:41.926Z,23.13
2022-12-15T05:05:10.241Z,23.04
2022-12-15T05:07:38.351Z,23.01
2022-12-15T05:10:12.739Z,22.92
2022-12-15T05:12:44.240Z,22.72
2022-12-15T05:15:12.774Z,22.71
2022-12-15T05:17:41.907Z,22.84
2022-12-15T05:20:10.344Z,22.76
2022-12-15T05:22:38.386Z,22.81
2022-12-15T05:25:06.857Z,22.75
2022-12-15T05:27:34.993Z,22.70
2022-12-15T05:30:03.247Z,22.71
2022-12-15T05:32:32.689Z,22.68
2022-12-15T05:35:01.046Z,22.71
2022-12-15T05:37:29.443Z,22.61
2022-12-15T05:39:57.475Z,22.72
2022-12-15T05:42:25.546Z,22.76
2022-12-15T05:44:53.544Z,22.69
2022-12-15T05:47:21.934Z,22.69
2022-12-15T05:49:50.143Z,22.51
2022-12-15T05:52:18.330Z,22.50
2022-12-15T05:54:46.565Z,22.53
2022-12-15T05:57:14.680Z,22.64
2022-12-15T05:59:42.960Z,22.48
2022-12-15T06:02:11.231Z,22.54
2022-12-15T06:04:39.862Z,22.50
2022-12-15T06:07:07.947Z,22.51
2022-12-15T06:09:36.143Z,22.50
2022-12-15T06:12:04.448Z,22.56
2022-12-15T06:14:32.604Z,22.54
2022-12-15T06:17:00.719Z,22.54
2022-12-15T06:19:28.949Z,22.54
2022-12-15T06:21:57.127Z,22.58
2022-12-15T06:24:25.305Z,22.53
2022-12-15T06:26:53.491Z,22.51
2022-12-15T06:29:21.770Z,22.53
2022-12-15T06:31:49.873Z,22.52
2022-12-15T06:34:18.749Z,22.60
2022-12-15T06:36:47.145Z,22.58
2022-12-15T06:39:16.600Z,22.53
2022-12-15T06:41:44.900Z,22.60
2022-12-15T06:44:15.292Z,22.59
2022-12-15T06:46:44.162Z,22.63
2022-12-15T06:49:12.693Z,22.70
2022-12-15T06:51:40.879Z,22.68
2022-12-15T06:54:09.864Z,22.73
2022-12-15T06:56:39.366Z,22.76
2022-12-15T06:59:07.916Z,22.79
2022-12-15T07:01:36.143Z,22.84
2022-12-15T07:04:04.850Z,22.76
2022-12-15T07:06:37.049Z,22.72
2022-12-15T07:09:08.120Z,22.72
2022-12-15T07:11:36.389Z,22.69
2022-12-15T07:14:04.926Z,22.55
2022-12-15T07:16:33.736Z,22.58
2022-12-15T07:19:02.173Z,22.66
2022-12-15T07:21:30.297Z,22.73
2022-12-15T07:23:59.410Z,22.80
2022-12-15T07:26:28.855Z,22.86
2022-12-15T07:28:56.858Z,23.01
2022-12-15T07:31:25.427Z,23.11
2022-12-15T07:33:53.514Z,23.22
2022-12-15T07:36:21.873Z,23.33
2022-12-15T07:38:51.585Z,23.48
2022-12-15T07:41:20.572Z,23.60
2022-12-15T07:43:48.933Z,23.71
2022-12-15T07:46:18.428Z,23.86
2022-12-15T07:48:50.966Z,24.21
2022-12-15T07:51:21.483Z,24.69
2022-12-15T07:53:50.739Z,25.23
2022-12-15T07:56:20.365Z,25.98
2022-12-15T07:58:49.414Z,26.99
2022-12-15T08:01:18.945Z,27.54
2022-12-15T08:03:48.957Z,27.39
2022-12-15T08:06:17.207Z,27.19
2022-12-15T08:08:49.973Z,27.13
2022-12-15T08:11:22.084Z,27.05
2022-12-15T08:14:10.481Z,26.97
2022-12-15T08:16:39.492Z,26.69
2022-12-15T08:19:13.595Z,26.31
2022-12-15T08:21:43.267Z,26.07
2022-12-15T08:24:12.099Z,25.81
2022-12-15T08:26:42.008Z,25.81
2022-12-15T08:32:02.868Z,25.18
2022-12-15T08:34:31.296Z,24.95
2022-12-15T08:36:59.406Z,24.81
2022-12-15T08:39:27.573Z,24.61
2022-12-15T08:41:56.678Z,24.63
2022-12-15T08:44:24.725Z,24.62
2022-12-15T08:46:52.780Z,24.73
2022-12-15T08:49:22.377Z,24.74
2022-12-15T08:51:50.856Z,24.71
2022-12-15T08:54:20.043Z,24.57
2022-12-15T08:56:48.995Z,24.60
2022-12-15T08:59:17.378Z,24.55
2022-12-15T09:01:45.582Z,24.42
2022-12-15T09:04:13.994Z,24.42
2022-12-15T09:06:42.907Z,24.42
2022-12-15T09:09:13.746Z,24.48
2022-12-15T09:11:41.846Z,24.44
2022-12-15T09:14:10.037Z,24.43
2022-12-15T09:16:38.268Z,24.54
2022-12-15T09:19:06.860Z,24.67
2022-12-15T09:21:35.348Z,24.78
2022-12-15T09:24:04.542Z,24.89
2022-12-15T09:26:34.643Z,24.87
2022-12-15T09:29:02.811Z,24.86
2022-12-15T09:31:33.325Z,24.88
2022-12-15T09:34:02.654Z,24.90
2022-12-15T09:36:32.331Z,24.94
2022-12-15T09:39:01.148Z,25.04
2022-12-15T09:41:34.840Z,25.09
2022-12-15T09:44:17.614Z,25.19
2022-12-15T09:46:51.380Z,25.32
2022-12-15T09:49:49.904Z,25.38
2022-12-15T09:52:24.264Z,25.49
2022-12-15T09:54:53.746Z,25.54
2022-12-15T09:57:37.077Z,25.55
2022-12-15T10:00:05.205Z,25.68
2022-12-15T10:02:51.599Z,25.86
2022-12-15T10:06:15.465Z,26.08
2022-12-15T10:08:52.898Z,26.01
2022-12-15T10:11:23.755Z,25.95
2022-12-15T10:14:03.013Z,26.08
2022-12-15T10:16:47.952Z,26.21
2022-12-15T10:19:27.035Z,26.29
2022-12-15T10:21:57.524Z,26.56
2022-12-15T10:25:08.658Z,26.79
2022-12-15T10:27:30.345Z,26.98
2022-12-15T10:30:08.888Z,27.19
2022-12-15T10:32:51.278Z,27.53
2022-12-15T10:35:26.318Z,27.43
2022-12-15T10:38:04.578Z,27.45
2022-12-15T10:40:50.525Z,27.44
2022-12-15T10:43:40.311Z,27.46
2022-12-15T10:46:11.697Z,27.37
2022-12-15T10:48:41.429Z,27.49
2022-12-15T10:51:33.178Z,27.41
2022-12-15T10:54:12.490Z,27.38
2022-12-15T10:56:54.721Z,26.96
2022-12-15T10:59:29.701Z,26.69
2022-12-15T11:02:25.541Z,26.67
2022-12-15T11:04:57.600Z,26.84
2022-12-15T11:07:35.171Z,26.86
2022-12-15T11:10:16.448Z,27.01
2022-12-15T11:12:58.362Z,27.19
2022-12-15T11:15:55.803Z,27.44
2022-12-15T11:18:48.866Z,27.69
2022-12-15T11:21:45.108Z,28.08
2022-12-15T11:24:20.941Z,28.42
2022-12-15T11:26:49.237Z,28.89
2022-12-15T11:29:23.613Z,29.36
2022-12-15T11:31:53.208Z,29.63
2022-12-15T11:34:25.602Z,29.49
2022-12-15T11:37:07.926Z,28.94
2022-12-15T11:39:56.013Z,28.80
2022-12-15T11:42:45.894Z,28.67
2022-12-15T11:45:48.259Z,28.33
2022-12-15T11:48:26.127Z,28.17
2022-12-15T11:51:03.086Z,27.78
2022-12-15T11:54:15.649Z,27.61
2022-12-15T11:56:53.134Z,27.55
2022-12-15T11:59:20.956Z,27.49
2022-12-15T12:02:03.467Z,27.46
2022-12-15T12:05:07.191Z,27.31
2022-12-15T12:07:45.591Z,27.49
2022-12-15T12:10:29.283Z,27.57
2022-12-15T12:13:04.803Z,27.33
2022-12-15T12:15:42.724Z,27.22
2022-12-15T12:18:42.701Z,27.18
2022-12-15T12:21:24.226Z,27.10
2022-12-15T12:24:00.686Z,27.16
2022-12-15T12:26:28.814Z,27.12
2022-12-15T12:29:06.663Z,26.94
2022-12-15T12:31:40.586Z,26.99
2022-12-15T12:34:22.729Z,27.14
2022-12-15T12:36:53.082Z,27.20
2022-12-15T12:39:24.826Z,27.28
2022-12-15T12:42:09.130Z,27.27
2022-12-15T12:44:38.913Z,27.33
2022-12-15T12:47:12.691Z,27.62
2022-12-15T12:49:50.785Z,27.79
2022-12-15T12:52:32.443Z,27.84
2022-12-15T12:55:09.565Z,28.04
2022-12-15T12:57:45.355Z,28.14
2022-12-15T13:00:32.577Z,27.99
2022-12-15T13:03:13.711Z,28.06
2022-12-15T13:05:43.632Z,28.01
2022-12-15T13:08:14.633Z,27.92
2022-12-15T13:10:47.925Z,27.96
2022-12-15T13:13:18.827Z,27.97
2022-12-15T13:15:51.375Z,28.06
2022-12-15T13:18:27.252Z,28.01
2022-12-15T13:20:57.377Z,27.82
2022-12-15T13:23:27.075Z,27.58
2022-12-15T13:25:59.039Z,27.43
2022-12-15T13:28:36.691Z,27.37
2022-12-15T13:31:17.019Z,27.41
2022-12-15T13:33:51.142Z,27.33
2022-12-15T13:36:37.841Z,27.18
2022-12-15T13:39:28.553Z,27.41
2022-12-15T13:44:55.084Z,27.56
2022-12-15T13:47:27.756Z,27.69
2022-12-15T13:50:03.577Z,27.74
2022-12-15T13:53:18.010Z,27.68
2022-12-15T13:55:53.060Z,27.69
2022-12-15T13:58:24.079Z,27.69
2022-12-15T14:00:57.395Z,27.77
2022-12-15T14:03:25.665Z,27.72
2022-12-15T14:05:56.627Z,27.67
2022-12-15T14:08:29.205Z,27.64
2022-12-15T14:11:00.167Z,27.62
2022-12-15T14:13:36.286Z,27.58
2022-12-15T14:16:14.772Z,27.53
2022-12-15T14:18:43.924Z,27.81
2022-12-15T14:21:23.039Z,27.91
2022-12-15T14:24:28.293Z,27.95
2022-12-15T14:26:41.558Z,28.11
2022-12-15T14:29:10.930Z,28.13
2022-12-15T14:31:40.590Z,28.33
2022-12-15T14:34:13.805Z,28.49
2022-12-15T14:36:43.945Z,28.47
2022-12-15T14:39:30.731Z,28.68
2022-12-15T14:41:59.845Z,28.97
2022-12-15T14:44:37.982Z,29.17
2022-12-15T14:47:21.349Z,29.13
2022-12-15T14:49:51.437Z,29.38
2022-12-15T14:52:28.287Z,29.32
2022-12-15T14:54:59.534Z,29.23
2022-12-15T14:57:46.658Z,29.29
2022-12-15T15:00:30.785Z,29.30
2022-12-15T15:03:24.184Z,29.24
2022-12-15T15:06:03.822Z,29.21
2022-12-15T15:08:37.000Z,29.16
2022-12-15T15:11:24.026Z,29.17
2022-12-15T15:14:19.007Z,29.10
2022-12-15T15:17:01.387Z,28.88
2022-12-15T15:19:30.695Z,28.75
2022-12-15T15:22:02.018Z,28.69
2022-12-15T15:24:34.838Z,28.57
2022-12-15T15:27:39.505Z,28.53
2022-12-15T15:30:27.911Z,28.59
2022-12-15T15:32:57.935Z,28.58
2022-12-15T15:35:31.545Z,28.56
2022-12-15T15:38:22.016Z,28.60
2022-12-15T15:40:55.778Z,28.69
2022-12-15T15:43:25.623Z,28.59
2022-12-15T15:46:06.649Z,28.50
2022-12-15T15:48:42.221Z,28.31
2022-12-15T15:51:10.840Z,28.20
2022-12-15T15:53:39.701Z,28.02
2022-12-15T15:56:12.083Z,27.91
2022-12-15T15:58:40.673Z,27.81
2022-12-15T16:01:13.133Z,27.63
2022-12-15T16:03:42.321Z,27.55
2022-12-15T16:06:21.932Z,27.45
2022-12-15T16:08:53.208Z,27.33
2022-12-15T16:11:27.919Z,27.33
2022-12-15T16:13:56.272Z,27.27
2022-12-15T16:16:30.231Z,27.27
2022-12-15T16:18:58.696Z,27.23
2022-12-15T16:21:27.960Z,27.22
2022-12-15T16:23:59.053Z,27.23
2022-12-15T16:26:32.538Z,27.24
2022-12-15T16:29:00.866Z,27.21
2022-12-15T16:31:38.953Z,27.12
2022-12-15T16:34:09.560Z,27.05
2022-12-15T16:36:38.442Z,26.88
2022-12-15T16:39:37.701Z,26.77
2022-12-15T16:42:09.782Z,26.73
2022-12-15T16:44:37.930Z,26.67
2022-12-15T16:47:05.958Z,26.64
2022-12-15T16:49:39.963Z,26.54
2022-12-15T16:52:19.590Z,26.46
2022-12-15T16:54:49.653Z,26.34
2022-12-15T16:57:17.999Z,26.30
2022-12-15T16:59:46.188Z,26.29
2022-12-15T17:02:29.866Z,26.29
2022-12-15T17:04:58.579Z,26.29
2022-12-15T17:07:27.949Z,26.25
2022-12-15T17:09:56.639Z,26.25
2022-12-15T17:12:25.195Z,26.31
2022-12-15T17:14:53.713Z,26.36
2022-12-15T17:17:22.026Z,26.36
2022-12-15T17:20:32.692Z,26.20
2022-12-15T17:22:38.677Z,26.09
2022-12-15T17:25:15.761Z,26.02
2022-12-15T17:27:44.637Z,25.94
2022-12-15T17:30:15.123Z,25.77
2022-12-15T17:32:43.903Z,25.58
2022-12-15T17:35:12.652Z,25.51
2022-12-15T17:37:41.350Z,25.48
2022-12-15T17:40:22.626Z,25.44
2022-12-15T17:42:51.080Z,25.39
2022-12-15T17:45:24.401Z,25.22
2022-12-15T17:47:52.604Z,25.24
2022-12-15T17:50:20.797Z,25.27
2022-12-15T17:52:49.026Z,25.16
2022-12-15T17:55:21.819Z,25.10
2022-12-15T17:57:51.266Z,25.07
2022-12-15T18:00:31.607Z,25.04
2022-12-15T18:03:00.887Z,24.90
2022-12-15T18:05:30.424Z,24.92
2022-12-15T18:08:02.806Z,24.94
2022-12-15T18:10:38.145Z,24.95
2022-12-15T18:13:19.602Z,24.94
2022-12-15T18:15:48.724Z,24.86
2022-12-15T18:18:18.583Z,24.85
2022-12-15T18:20:47.745Z,24.86
2022-12-15T18:23:20.162Z,24.89
2022-12-15T18:25:48.729Z,24.91
2022-12-15T18:28:19.541Z,24.87
2022-12-15T18:30:52.509Z,24.86
2022-12-15T18:33:22.645Z,24.84
2022-12-15T18:35:52.542Z,24.76
2022-12-15T18:38:24.813Z,24.74
2022-12-15T18:40:59.458Z,24.71
2022-12-15T18:43:35.353Z,24.63
2022-12-15T18:46:03.651Z,24.63
2022-12-15T18:48:33.904Z,24.57
2022-12-15T18:51:07.159Z,24.51
2022-12-15T18:53:36.846Z,24.43
2022-12-15T18:56:07.750Z,24.38
2022-12-15T18:58:38.406Z,24.31
2022-12-15T19:01:08.511Z,24.25
2022-12-15T19:03:37.786Z,24.20
2022-12-15T19:06:35.694Z,24.18
2022-12-15T19:09:24.199Z,24.16
2022-12-15T19:11:52.542Z,24.20
2022-12-15T19:14:20.864Z,24.18
2022-12-15T19:16:49.164Z,24.16
2022-12-15T19:19:17.608Z,24.18
2022-12-15T19:21:45.628Z,24.16
2022-12-15T19:24:16.763Z,24.10
2022-12-15T19:26:44.868Z,24.10
2022-12-15T19:29:21.582Z,24.08
2022-12-15T19:31:49.965Z,24.09
2022-12-15T19:34:18.172Z,24.11
2022-12-15T19:36:46.338Z,24.07
2022-12-15T19:39:24.608Z,24.07
2022-12-15T19:41:52.789Z,24.07
2022-12-15T19:44:22.929Z,24.10
2022-12-15T19:46:51.026Z,24.07
2022-12-15T19:49:19.238Z,24.04
2022-12-15T19:51:47.402Z,23.94
2022-12-15T19:54:21.896Z,23.86
2022-12-15T19:56:49.850Z,23.79
2022-12-15T19:59:26.707Z,23.80
2022-12-15T20:01:54.957Z,23.79
2022-12-15T20:04:24.508Z,23.75
2022-12-15T20:06:52.940Z,23.70
2022-12-15T20:09:21.139Z,23.70
2022-12-15T20:11:49.327Z,23.70
2022-12-15T20:14:17.986Z,23.77
2022-12-15T20:16:46.472Z,23.81
2022-12-15T20:19:14.557Z,23.84
2022-12-15T20:21:42.882Z,23.84
2022-12-15T20:24:19.486Z,23.80
2022-12-15T20:26:49.006Z,23.84
2022-12-15T20:29:28.462Z,23.85
2022-12-15T20:31:58.465Z,23.87
2022-12-15T20:34:26.601Z,23.84
2022-12-15T20:36:54.747Z,23.83
2022-12-15T20:39:31.155Z,23.83
2022-12-15T20:41:59.742Z,23.90
2022-12-15T20:44:27.870Z,23.92
2022-12-15T20:46:56.567Z,23.84
2022-12-15T20:49:24.734Z,23.80
2022-12-15T20:51:52.776Z,23.78
2022-12-15T20:54:22.349Z,23.75
2022-12-15T20:56:50.806Z,23.74
2022-12-15T20:59:19.299Z,23.72
2022-12-15T21:01:47.840Z,23.73
2022-12-15T21:04:30.481Z,23.74
2022-12-15T21:06:58.941Z,23.74
2022-12-15T21:09:27.058Z,23.75
2022-12-15T21:11:55.212Z,23.71
2022-12-15T21:14:24.296Z,23.63
2022-12-15T21:16:53.017Z,23.64
2022-12-15T21:19:22.345Z,23.63
2022-12-15T21:21:55.058Z,23.65
2022-12-15T21:24:26.109Z,23.63
2022-12-15T21:26:55.472Z,23.60
2022-12-15T21:29:26.089Z,23.57
2022-12-15T21:31:54.233Z,23.52
2022-12-15T21:34:23.271Z,23.49
2022-12-15T21:36:54.914Z,23.48
2022-12-15T21:39:35.252Z,23.44
2022-12-15T21:42:07.771Z,23.48
2022-12-15T21:44:36.338Z,23.42
2022-12-15T21:47:32.120Z,23.35
2022-12-15T21:50:00.445Z,23.26
2022-12-15T21:52:28.584Z,23.22
2022-12-15T21:54:56.796Z,23.14
2022-12-15T21:57:24.913Z,23.07
2022-12-15T21:59:53.044Z,22.99
2022-12-15T22:02:27.125Z,22.97
2022-12-15T22:04:55.509Z,22.96
2022-12-15T22:07:23.480Z,22.94
2022-12-15T22:09:51.914Z,22.90
2022-12-15T22:12:22.770Z,22.90
2022-12-15T22:14:50.922Z,22.93
2022-12-15T22:17:22.185Z,22.91
2022-12-15T22:19:50.295Z,22.77
2022-12-15T22:22:18.476Z,22.72
2022-12-15T22:24:46.678Z,22.77
2022-12-15T22:27:23.743Z,22.73
2022-12-15T22:29:52.390Z,22.63
2022-12-15T22:32:20.376Z,22.67
2022-12-15T22:34:48.422Z,22.61
2022-12-15T22:37:16.822Z,22.56
2022-12-15T22:39:44.904Z,22.50
2022-12-15T22:42:17.146Z,22.49
2022-12-15T22:44:45.764Z,22.44
2022-12-15T22:47:13.924Z,22.38
2022-12-15T22:49:42.726Z,22.43
2022-12-15T22:52:19.436Z,22.40
2022-12-15T22:54:48.027Z,22.51
2022-12-15T22:57:22.782Z,22.52
2022-12-15T23:00:10.984Z,22.53
2022-12-15T23:02:41.865Z,22.59
2022-12-15T23:05:13.217Z,22.60
2022-12-15T23:07:42.310Z,22.57
2022-12-15T23:10:12.268Z,22.50
2022-12-15T23:12:40.893Z,22.56
2022-12-15T23:15:09.849Z,22.65
2022-12-15T23:17:37.957Z,22.63
2022-12-15T23:20:06.644Z,22.61
2022-12-15T23:22:34.838Z,22.54
2022-12-15T23:25:02.954Z,22.40
2022-12-15T23:27:31.521Z,22.44
2022-12-15T23:29:59.961Z,22.36
2022-12-15T23:32:28.033Z,22.34
2022-12-15T23:34:56.262Z,22.31
2022-12-15T23:37:24.275Z,22.40
2022-12-15T23:39:52.212Z,22.38
2022-12-15T23:42:20.963Z,22.38
2022-12-15T23:44:48.983Z,22.41
2022-12-15T23:47:17.351Z,22.47
2022-12-15T23:49:45.689Z,22.41
2022-12-15T23:52:13.842Z,22.43
2022-12-15T23:54:42.064Z,22.37
2022-12-15T23:57:10.434Z,22.34
2022-12-15T23:59:38.798Z,22.27
